Marina Del Rey, California
Current Conditions -  °F | °C
As of 4:51 PM on Friday 19 Dec 2014 (Local Time) from KSMO Reporting Station
Clear Clear  
Wind Chill: 61°   Ceiling: Unl
Heat Index: 61°   Visibility: 10mi
Dew Point: 50°   Wind: 3mph
Humidity: 67%   Direction: 260°W
Pressure: 30.16"   Gusts: NA
Location:  33.98°N, 118.45°W
Report Text: KSMO 200051Z 26003KT 10SM CLR 16/10 A3016 RMK AO2 SLP214 T01610100
Loading
Personal Weather Stations






























Interactive Weather Map New forecast layout! Learn more

10-Day Weather Forecast

Advertisements
Track Severe Weather on mobile